Lynnville, IN (47619)

10:30 AM CDT on September 04, 2015 (GMT -0500)
The Lodge at Turtle Lake | | Change Station
CLOSE
Current Station
Personal Weather Station
Location: Lynnville, IN
Elevation: 523 ft
Nearby Weather Stations

Elev 523 ft 38.20 °N, 87.29 °W | Updated 42 seconds ago

Clear
Clear
90.7 °F
Feels Like 102 °F
N
0.0
Wind Variable Wind from SSE
Gusts 0.0 mph

Today
High -- | Low -- °F
--% Chance of Precip.
Yesterday
High -- | Low -- °F
Precip. -- in
6:21 AM 7:14 PM
Waning Gibbous, 58% visible
Pressure 30.04 in
Visibility 8.0 miles
Clouds Clear
Heat Index 102 °F
Dew Point 75 °F
Humidity 61%
Rainfall 0.00 in
Snow Depth Not available.
UV 5 out of 12
Pollen 10.40 out of 12
Air Quality Not available.
Flu Activity Not available.
METAR KEVV 041454Z 08003KT 8SM CLR 29/20 A3005 RMK AO2 SLP172 T02940200 51006
Pressure 30.04 in
Visibility 8.0 miles
Clouds Clear
Heat Index 102 °F
Dew Point 75 °F
Humidity 61%
Rainfall 0.00 in
Snow Depth Not available.
UV 5 out of 12
Pollen 10.40 out of 12
Air Quality Not available.
Flu Activity Not available.
METAR KEVV 041454Z 08003KT 8SM CLR 29/20 A3005 RMK AO2 SLP172 T02940200 51006

10-Day Weather Forecast

×

Almanac

Astronomy

Sep. 04, 2015 Rise Set
Actual Time
Civil Twilight
Nautical Twilight
Astronomical Twilight
Moon
Length of Visible Light
Length of Day
Tomorrow will be .
, % of the Moon is Illuminated

Today's Extremes

State Highs State Lows

Community

WunderPhotos

Upload Photos

1,852,195 photos uploaded!

WunderBlogs® & News

Nearby

Air Quality

  Air Quality AQ Index Pollutant
Not available.

Snow Depth

Station Depth Elevation

Earthquake Activity

City Distance Mag. Time & Date
Minimum magnitude displayed is 2.5.

Coastal Water Temperatures

Place Temperature

Stations

Nearby Weather Stations

Station Location Temp. Windchill Dew Point Humidity Wind Precip. Elev Updated Type